KDSM

Des Moines International Airport

Des Moines, Iowa, USA
METAR KDSM 201513Z 29015G20KT 8SM -FZRAPL OVC010 M03/M05 A2997 RMK AO2 WSHFT 1459 FZRAB11PLB11 P0000 I1000 T10331050
Observed Flight Rules
Feb-20 @ 15:13 UTC (2 hours ago) Marginal Visual Flight Rules
Wind Visibility Clouds Conditions
290° at 15 knots
 Gusting to 20 knots
8 miles
  • Overcast at 1,000' AGL
  • Light Freezing
  • Light Rain
Temperatures Readings Precipitation
Current -3°C / 27°F
Dewpoint -5°C / 23°F
Humidity 86%
Altimeter 29.97" Hg
Pressure 1015 hPa
Elevation 295
Current Rain 0.005
METAR KDSM 201513Z 29015G20KT 8SM -FZRAPL OVC010 M03/M05 A2997 RMK AO2 WSHFT 1459 FZRAB11PLB11 P0000 I1000 T10331050
Observed Flight Rules
Feb-20 @ 15:13 UTC
(2 hours ago)
MVFR
Wind Visibility
290° at 15 knots
 Gusting to 20 knots
8 miles
Clouds
  • Overcast at 1,000' AGL
Conditions
  • Light Freezing
  • Light Rain
Temperature Dewpoint
-3°C / 27°F -5°C / 23°F
Humidity Altimeter Pressure
86% 29.97" Hg 1015 hPa
Current Rain
0.005